sensor_id;sensor_type;location;lat;lon;timestamp;P1;durP1;ratioP1;P2;durP2;ratioP2
79330;SDS011;68797;49.782;19.054;2023-04-09T00:03:38;31.05;;;13.82;;
79330;SDS011;68797;49.782;19.054;2023-04-09T00:06:06;34.22;;;16.05;;
79330;SDS011;68797;49.782;19.054;2023-04-09T00:08:34;33.72;;;15.77;;
79330;SDS011;68797;49.782;19.054;2023-04-09T00:11:01;36.70;;;15.73;;
79330;SDS011;68797;49.782;19.054;2023-04-09T00:13:28;33.78;;;15.57;;
79330;SDS011;68797;49.782;19.054;2023-04-09T00:15:57;31.10;;;14.60;;
79330;SDS011;68797;49.782;19.054;2023-04-09T00:18:27;35.83;;;16.08;;
79330;SDS011;68797;49.782;19.054;2023-04-09T00:20:54;31.45;;;14.10;;
79330;SDS011;68797;49.782;19.054;2023-04-09T00:23:21;26.60;;;12.45;;
79330;SDS011;68797;49.782;19.054;2023-04-09T00:25:48;25.63;;;13.32;;
79330;SDS011;68797;49.782;19.054;2023-04-09T00:28:15;26.50;;;12.85;;
79330;SDS011;68797;49.782;19.054;2023-04-09T00:30:43;28.13;;;13.85;;
79330;SDS011;68797;49.782;19.054;2023-04-09T00:35:37;28.65;;;12.60;;
79330;SDS011;68797;49.782;19.054;2023-04-09T00:38:04;31.20;;;13.98;;
79330;SDS011;68797;49.782;19.054;2023-04-09T00:40:30;34.70;;;15.52;;
79330;SDS011;68797;49.782;19.054;2023-04-09T00:42:59;40.25;;;17.70;;
79330;SDS011;68797;49.782;19.054;2023-04-09T00:45:29;43.70;;;19.80;;
79330;SDS011;68797;49.782;19.054;2023-04-09T00:47:57;55.75;;;24.33;;
79330;SDS011;68797;49.782;19.054;2023-04-09T00:50:24;58.65;;;25.38;;
79330;SDS011;68797;49.782;19.054;2023-04-09T00:52:51;53.60;;;24.50;;
79330;SDS011;68797;49.782;19.054;2023-04-09T00:55:19;62.70;;;26.40;;
79330;SDS011;68797;49.782;19.054;2023-04-09T00:57:50;62.97;;;28.83;;
79330;SDS011;68797;49.782;19.054;2023-04-09T01:00:17;69.93;;;29.50;;
79330;SDS011;68797;49.782;19.054;2023-04-09T01:02:47;62.35;;;25.77;;
79330;SDS011;68797;49.782;19.054;2023-04-09T01:05:16;65.85;;;28.83;;
79330;SDS011;68797;49.782;19.054;2023-04-09T01:08:07;55.75;;;24.08;;
79330;SDS011;68797;49.782;19.054;2023-04-09T01:10:47;53.42;;;22.85;;
79330;SDS011;68797;49.782;19.054;2023-04-09T01:14:00;48.85;;;21.77;;
79330;SDS011;68797;49.782;19.054;2023-04-09T01:16:40;50.88;;;22.50;;
79330;SDS011;68797;49.782;19.054;2023-04-09T01:19:25;46.92;;;21.10;;
79330;SDS011;68797;49.782;19.054;2023-04-09T01:22:04;48.75;;;21.45;;
79330;SDS011;68797;49.782;19.054;2023-04-09T01:24:59;40.78;;;19.08;;
79330;SDS011;68797;49.782;19.054;2023-04-09T01:27:46;40.58;;;17.52;;
79330;SDS011;68797;49.782;19.054;2023-04-09T01:30:31;37.17;;;15.60;;
79330;SDS011;68797;49.782;19.054;2023-04-09T01:32:58;36.95;;;16.75;;
79330;SDS011;68797;49.782;19.054;2023-04-09T01:35:26;41.78;;;18.30;;
79330;SDS011;68797;49.782;19.054;2023-04-09T01:37:54;43.45;;;18.05;;
79330;SDS011;68797;49.782;19.054;2023-04-09T01:40:26;48.03;;;18.85;;
79330;SDS011;68797;49.782;19.054;2023-04-09T01:42:53;37.55;;;18.88;;
79330;SDS011;68797;49.782;19.054;2023-04-09T01:45:21;38.72;;;17.92;;
79330;SDS011;68797;49.782;19.054;2023-04-09T01:47:48;41.53;;;18.85;;
79330;SDS011;68797;49.782;19.054;2023-04-09T01:50:16;37.28;;;16.52;;
79330;SDS011;68797;49.782;19.054;2023-04-09T01:52:43;45.78;;;20.15;;
79330;SDS011;68797;49.782;19.054;2023-04-09T01:55:10;38.83;;;17.45;;
79330;SDS011;68797;49.782;19.054;2023-04-09T01:57:38;35.75;;;17.70;;
79330;SDS011;68797;49.782;19.054;2023-04-09T02:00:07;34.03;;;16.13;;
79330;SDS011;68797;49.782;19.054;2023-04-09T02:08:51;46.13;;;22.27;;
79330;SDS011;68797;49.782;19.054;2023-04-09T02:11:22;53.10;;;24.25;;
79330;SDS011;68797;49.782;19.054;2023-04-09T02:13:50;53.80;;;24.20;;
79330;SDS011;68797;49.782;19.054;2023-04-09T02:16:21;57.33;;;24.25;;
79330;SDS011;68797;49.782;19.054;2023-04-09T02:18:52;56.40;;;25.65;;
79330;SDS011;68797;49.782;19.054;2023-04-09T02:21:22;70.18;;;29.08;;
79330;SDS011;68797;49.782;19.054;2023-04-09T02:23:49;47.83;;;21.95;;
79330;SDS011;68797;49.782;19.054;2023-04-09T02:26:18;51.58;;;22.58;;
79330;SDS011;68797;49.782;19.054;2023-04-09T02:28:44;44.00;;;19.27;;
79330;SDS011;68797;49.782;19.054;2023-04-09T02:31:12;38.90;;;18.17;;
79330;SDS011;68797;49.782;19.054;2023-04-09T02:33:41;38.67;;;16.73;;
79330;SDS011;68797;49.782;19.054;2023-04-09T02:36:11;45.97;;;18.88;;
79330;SDS011;68797;49.782;19.054;2023-04-09T02:38:42;53.13;;;21.83;;
79330;SDS011;68797;49.782;19.054;2023-04-09T02:41:12;39.70;;;18.38;;
79330;SDS011;68797;49.782;19.054;2023-04-09T02:43:40;48.10;;;19.80;;
79330;SDS011;68797;49.782;19.054;2023-04-09T02:46:07;47.05;;;19.73;;
79330;SDS011;68797;49.782;19.054;2023-04-09T02:48:35;62.10;;;25.08;;
79330;SDS011;68797;49.782;19.054;2023-04-09T02:51:03;61.53;;;26.83;;
79330;SDS011;68797;49.782;19.054;2023-04-09T02:53:32;52.72;;;23.95;;
79330;SDS011;68797;49.782;19.054;2023-04-09T02:55:58;58.38;;;24.92;;
79330;SDS011;68797;49.782;19.054;2023-04-09T02:58:25;66.65;;;28.52;;
79330;SDS011;68797;49.782;19.054;2023-04-09T03:00:53;62.78;;;26.33;;
79330;SDS011;68797;49.782;19.054;2023-04-09T03:03:20;57.15;;;23.25;;
79330;SDS011;68797;49.782;19.054;2023-04-09T03:05:46;56.78;;;23.23;;
79330;SDS011;68797;49.782;19.054;2023-04-09T03:08:13;38.17;;;17.20;;
79330;SDS011;68797;49.782;19.054;2023-04-09T03:10:43;40.45;;;16.85;;
79330;SDS011;68797;49.782;19.054;2023-04-09T03:13:10;48.00;;;22.95;;
79330;SDS011;68797;49.782;19.054;2023-04-09T03:15:36;54.65;;;24.60;;
79330;SDS011;68797;49.782;19.054;2023-04-09T03:18:04;64.22;;;27.15;;
79330;SDS011;68797;49.782;19.054;2023-04-09T03:20:31;59.65;;;24.05;;
79330;SDS011;68797;49.782;19.054;2023-04-09T03:22:58;69.15;;;28.08;;
79330;SDS011;68797;49.782;19.054;2023-04-09T03:25:35;49.53;;;22.63;;
79330;SDS011;68797;49.782;19.054;2023-04-09T03:28:11;70.40;;;29.75;;
79330;SDS011;68797;49.782;19.054;2023-04-09T03:30:43;62.90;;;28.63;;
79330;SDS011;68797;49.782;19.054;2023-04-09T03:33:10;60.03;;;26.58;;
79330;SDS011;68797;49.782;19.054;2023-04-09T03:35:48;55.38;;;22.60;;
79330;SDS011;68797;49.782;19.054;2023-04-09T03:38:19;40.88;;;17.58;;
79330;SDS011;68797;49.782;19.054;2023-04-09T03:40:46;39.05;;;17.23;;
79330;SDS011;68797;49.782;19.054;2023-04-09T03:43:12;41.35;;;18.20;;
79330;SDS011;68797;49.782;19.054;2023-04-09T03:45:46;41.33;;;18.73;;
79330;SDS011;68797;49.782;19.054;2023-04-09T03:48:21;45.47;;;20.45;;
79330;SDS011;68797;49.782;19.054;2023-04-09T03:50:49;45.58;;;20.15;;
79330;SDS011;68797;49.782;19.054;2023-04-09T03:55:53;47.60;;;21.45;;
79330;SDS011;68797;49.782;19.054;2023-04-09T03:58:24;46.08;;;21.95;;
79330;SDS011;68797;49.782;19.054;2023-04-09T04:00:53;49.08;;;22.08;;
79330;SDS011;68797;49.782;19.054;2023-04-09T04:03:36;53.28;;;21.95;;
79330;SDS011;68797;49.782;19.054;2023-04-09T04:06:22;42.05;;;19.40;;
79330;SDS011;68797;49.782;19.054;2023-04-09T04:09:25;43.67;;;19.23;;
79330;SDS011;68797;49.782;19.054;2023-04-09T04:12:19;42.08;;;18.63;;
79330;SDS011;68797;49.782;19.054;2023-04-09T04:15:11;36.53;;;16.38;;
79330;SDS011;68797;49.782;19.054;2023-04-09T04:17:48;32.08;;;15.48;;
79330;SDS011;68797;49.782;19.054;2023-04-09T04:20:38;33.17;;;16.10;;
79330;SDS011;68797;49.782;19.054;2023-04-09T04:23:12;36.42;;;16.67;;
79330;SDS011;68797;49.782;19.054;2023-04-09T04:25:47;43.10;;;19.40;;
79330;SDS011;68797;49.782;19.054;2023-04-09T04:28:23;50.67;;;23.13;;
79330;SDS011;68797;49.782;19.054;2023-04-09T04:30:51;47.08;;;21.98;;
79330;SDS011;68797;49.782;19.054;2023-04-09T04:33:18;57.72;;;26.55;;
79330;SDS011;68797;49.782;19.054;2023-04-09T04:35:50;51.72;;;23.83;;
79330;SDS011;68797;49.782;19.054;2023-04-09T04:38:43;52.90;;;25.48;;
79330;SDS011;68797;49.782;19.054;2023-04-09T04:41:24;63.72;;;27.35;;
79330;SDS011;68797;49.782;19.054;2023-04-09T04:44:03;62.17;;;28.05;;
79330;SDS011;68797;49.782;19.054;2023-04-09T04:46:31;60.15;;;27.25;;
79330;SDS011;68797;49.782;19.054;2023-04-09T04:48:58;55.55;;;24.48;;
79330;SDS011;68797;49.782;19.054;2023-04-09T04:51:26;56.97;;;24.20;;
79330;SDS011;68797;49.782;19.054;2023-04-09T04:54:17;43.05;;;19.77;;
79330;SDS011;68797;49.782;19.054;2023-04-09T04:56:51;57.42;;;26.90;;
79330;SDS011;68797;49.782;19.054;2023-04-09T04:59:32;58.22;;;24.83;;
79330;SDS011;68797;49.782;19.054;2023-04-09T05:02:02;51.55;;;22.73;;
79330;SDS011;68797;49.782;19.054;2023-04-09T05:04:35;64.43;;;26.63;;
79330;SDS011;68797;49.782;19.054;2023-04-09T05:07:03;58.70;;;26.33;;
79330;SDS011;68797;49.782;19.054;2023-04-09T05:09:34;64.72;;;27.73;;
79330;SDS011;68797;49.782;19.054;2023-04-09T05:12:07;64.43;;;30.35;;
79330;SDS011;68797;49.782;19.054;2023-04-09T05:14:35;63.70;;;30.00;;
79330;SDS011;68797;49.782;19.054;2023-04-09T05:17:02;71.90;;;31.17;;
79330;SDS011;68797;49.782;19.054;2023-04-09T05:19:41;70.85;;;31.48;;
79330;SDS011;68797;49.782;19.054;2023-04-09T05:22:09;70.32;;;32.40;;
79330;SDS011;68797;49.782;19.054;2023-04-09T05:24:36;74.97;;;31.83;;
79330;SDS011;68797;49.782;19.054;2023-04-09T05:27:03;74.88;;;33.25;;
79330;SDS011;68797;49.782;19.054;2023-04-09T05:29:32;76.93;;;33.60;;
79330;SDS011;68797;49.782;19.054;2023-04-09T05:32:02;82.45;;;35.80;;
79330;SDS011;68797;49.782;19.054;2023-04-09T05:34:36;86.00;;;39.13;;
79330;SDS011;68797;49.782;19.054;2023-04-09T05:37:04;100.70;;;43.47;;
79330;SDS011;68797;49.782;19.054;2023-04-09T05:39:34;100.68;;;41.22;;
79330;SDS011;68797;49.782;19.054;2023-04-09T07:01:03;54.70;;;27.10;;
79330;SDS011;68797;49.782;19.054;2023-04-09T07:03:32;72.13;;;35.50;;
79330;SDS011;68797;49.782;19.054;2023-04-09T07:05:59;57.53;;;29.55;;
79330;SDS011;68797;49.782;19.054;2023-04-09T07:08:29;63.60;;;34.13;;
79330;SDS011;68797;49.782;19.054;2023-04-09T07:10:56;64.50;;;32.70;;
79330;SDS011;68797;49.782;19.054;2023-04-09T07:13:23;96.15;;;67.95;;
79330;SDS011;68797;49.782;19.054;2023-04-09T07:18:19;54.88;;;30.13;;
79330;SDS011;68797;49.782;19.054;2023-04-09T07:20:45;57.33;;;27.30;;
79330;SDS011;68797;49.782;19.054;2023-04-09T07:23:13;71.97;;;51.25;;
79330;SDS011;68797;49.782;19.054;2023-04-09T07:25:41;54.30;;;34.53;;
79330;SDS011;68797;49.782;19.054;2023-04-09T07:28:10;51.60;;;29.73;;
79330;SDS011;68797;49.782;19.054;2023-04-09T07:30:38;67.18;;;42.13;;
79330;SDS011;68797;49.782;19.054;2023-04-09T07:33:06;45.33;;;22.85;;
79330;SDS011;68797;49.782;19.054;2023-04-09T07:35:32;58.00;;;30.50;;
79330;SDS011;68797;49.782;19.054;2023-04-09T07:38:00;65.45;;;38.45;;
79330;SDS011;68797;49.782;19.054;2023-04-09T07:40:26;74.70;;;44.20;;
79330;SDS011;68797;49.782;19.054;2023-04-09T07:42:57;51.63;;;27.42;;
79330;SDS011;68797;49.782;19.054;2023-04-09T07:45:25;56.88;;;28.38;;
79330;SDS011;68797;49.782;19.054;2023-04-09T07:47:52;57.60;;;30.23;;
79330;SDS011;68797;49.782;19.054;2023-04-09T07:50:19;55.22;;;29.23;;
79330;SDS011;68797;49.782;19.054;2023-04-09T07:52:46;50.25;;;22.80;;
79330;SDS011;68797;49.782;19.054;2023-04-09T07:55:12;42.28;;;21.75;;
79330;SDS011;68797;49.782;19.054;2023-04-09T07:57:40;54.15;;;25.85;;
79330;SDS011;68797;49.782;19.054;2023-04-09T08:00:08;48.88;;;25.42;;
79330;SDS011;68797;49.782;19.054;2023-04-09T08:02:40;47.58;;;23.65;;
79330;SDS011;68797;49.782;19.054;2023-04-09T08:05:07;46.58;;;22.85;;
79330;SDS011;68797;49.782;19.054;2023-04-09T08:10:25;55.75;;;28.67;;
79330;SDS011;68797;49.782;19.054;2023-04-09T08:12:53;46.20;;;23.67;;
79330;SDS011;68797;49.782;19.054;2023-04-09T08:24:38;59.10;;;28.13;;
79330;SDS011;68797;49.782;19.054;2023-04-09T08:33:41;41.97;;;19.05;;
79330;SDS011;68797;49.782;19.054;2023-04-09T08:46:06;58.92;;;30.98;;
79330;SDS011;68797;49.782;19.054;2023-04-09T09:00:19;40.75;;;19.67;;
79330;SDS011;68797;49.782;19.054;2023-04-09T09:04:30;42.00;;;20.85;;
79330;SDS011;68797;49.782;19.054;2023-04-09T10:00:14;29.55;;;15.10;;
79330;SDS011;68797;49.782;19.054;2023-04-09T10:02:50;30.67;;;16.70;;
79330;SDS011;68797;49.782;19.054;2023-04-09T10:09:03;24.10;;;14.00;;
79330;SDS011;68797;49.782;19.054;2023-04-09T10:11:34;28.95;;;16.80;;
79330;SDS011;68797;49.782;19.054;2023-04-09T10:14:03;27.15;;;14.88;;
79330;SDS011;68797;49.782;19.054;2023-04-09T10:16:31;29.55;;;16.05;;
79330;SDS011;68797;49.782;19.054;2023-04-09T10:18:58;25.70;;;15.63;;
79330;SDS011;68797;49.782;19.054;2023-04-09T10:21:39;26.42;;;15.15;;
79330;SDS011;68797;49.782;19.054;2023-04-09T10:24:21;28.10;;;14.80;;
79330;SDS011;68797;49.782;19.054;2023-04-09T10:26:48;30.08;;;15.38;;
79330;SDS011;68797;49.782;19.054;2023-04-09T10:29:24;27.90;;;16.02;;
79330;SDS011;68797;49.782;19.054;2023-04-09T10:32:04;28.55;;;16.27;;
79330;SDS011;68797;49.782;19.054;2023-04-09T10:34:35;28.67;;;15.82;;
79330;SDS011;68797;49.782;19.054;2023-04-09T10:37:08;27.55;;;15.77;;
79330;SDS011;68797;49.782;19.054;2023-04-09T10:39:57;29.23;;;15.43;;
79330;SDS011;68797;49.782;19.054;2023-04-09T10:46:53;25.95;;;14.75;;
79330;SDS011;68797;49.782;19.054;2023-04-09T10:49:41;34.45;;;18.98;;
79330;SDS011;68797;49.782;19.054;2023-04-09T10:52:08;27.45;;;16.30;;
79330;SDS011;68797;49.782;19.054;2023-04-09T10:59:33;25.08;;;14.65;;
79330;SDS011;68797;49.782;19.054;2023-04-09T11:02:03;24.95;;;13.52;;
79330;SDS011;68797;49.782;19.054;2023-04-09T11:36:59;30.95;;;18.27;;
79330;SDS011;68797;49.782;19.054;2023-04-09T11:39:30;35.78;;;18.70;;
79330;SDS011;68797;49.782;19.054;2023-04-09T15:05:31;32.35;;;16.42;;
79330;SDS011;68797;49.782;19.054;2023-04-09T15:07:59;29.08;;;16.35;;
79330;SDS011;68797;49.782;19.054;2023-04-09T15:10:26;29.85;;;16.58;;
79330;SDS011;68797;49.782;19.054;2023-04-09T15:12:54;27.42;;;15.98;;
79330;SDS011;68797;49.782;19.054;2023-04-09T15:15:21;28.35;;;16.35;;
79330;SDS011;68797;49.782;19.054;2023-04-09T15:17:48;28.70;;;15.48;;
79330;SDS011;68797;49.782;19.054;2023-04-09T15:20:15;29.38;;;15.57;;
79330;SDS011;68797;49.782;19.054;2023-04-09T15:22:42;29.08;;;15.90;;
79330;SDS011;68797;49.782;19.054;2023-04-09T15:25:09;30.55;;;15.60;;
79330;SDS011;68797;49.782;19.054;2023-04-09T15:27:37;27.65;;;16.10;;
79330;SDS011;68797;49.782;19.054;2023-04-09T15:30:03;30.70;;;17.63;;
79330;SDS011;68797;49.782;19.054;2023-04-09T15:32:31;30.38;;;17.38;;
79330;SDS011;68797;49.782;19.054;2023-04-09T15:34:58;29.67;;;15.32;;
79330;SDS011;68797;49.782;19.054;2023-04-09T15:37:26;31.90;;;16.48;;
79330;SDS011;68797;49.782;19.054;2023-04-09T15:39:53;32.22;;;19.00;;
79330;SDS011;68797;49.782;19.054;2023-04-09T15:42:20;33.33;;;19.10;;
79330;SDS011;68797;49.782;19.054;2023-04-09T15:44:48;31.63;;;17.95;;
79330;SDS011;68797;49.782;19.054;2023-04-09T15:55:44;31.65;;;17.08;;
79330;SDS011;68797;49.782;19.054;2023-04-09T15:58:11;32.53;;;18.08;;
79330;SDS011;68797;49.782;19.054;2023-04-09T16:00:38;28.48;;;16.20;;
79330;SDS011;68797;49.782;19.054;2023-04-09T16:05:31;36.90;;;17.90;;
79330;SDS011;68797;49.782;19.054;2023-04-09T16:07:58;39.03;;;21.63;;
79330;SDS011;68797;49.782;19.054;2023-04-09T16:10:27;42.35;;;24.42;;
79330;SDS011;68797;49.782;19.054;2023-04-09T16:12:54;35.35;;;21.80;;
79330;SDS011;68797;49.782;19.054;2023-04-09T16:15:21;30.42;;;18.08;;
79330;SDS011;68797;49.782;19.054;2023-04-09T16:17:54;31.70;;;17.48;;
79330;SDS011;68797;49.782;19.054;2023-04-09T16:20:23;39.60;;;19.85;;
79330;SDS011;68797;49.782;19.054;2023-04-09T16:22:50;42.67;;;23.90;;
79330;SDS011;68797;49.782;19.054;2023-04-09T16:25:18;49.55;;;27.85;;
79330;SDS011;68797;49.782;19.054;2023-04-09T16:27:45;40.80;;;21.88;;
79330;SDS011;68797;49.782;19.054;2023-04-09T16:30:12;39.30;;;20.95;;
79330;SDS011;68797;49.782;19.054;2023-04-09T16:32:39;44.70;;;24.48;;
79330;SDS011;68797;49.782;19.054;2023-04-09T16:35:06;36.15;;;21.50;;
79330;SDS011;68797;49.782;19.054;2023-04-09T16:37:35;38.67;;;21.23;;
79330;SDS011;68797;49.782;19.054;2023-04-09T16:40:03;37.20;;;20.73;;
79330;SDS011;68797;49.782;19.054;2023-04-09T16:42:31;37.28;;;20.58;;
79330;SDS011;68797;49.782;19.054;2023-04-09T16:44:58;35.45;;;18.95;;
79330;SDS011;68797;49.782;19.054;2023-04-09T16:47:30;37.03;;;20.42;;
79330;SDS011;68797;49.782;19.054;2023-04-09T16:52:26;30.17;;;16.83;;
79330;SDS011;68797;49.782;19.054;2023-04-09T16:57:21;31.08;;;15.95;;
79330;SDS011;68797;49.782;19.054;2023-04-09T16:59:48;31.98;;;17.67;;
79330;SDS011;68797;49.782;19.054;2023-04-09T17:02:31;31.58;;;17.08;;
79330;SDS011;68797;49.782;19.054;2023-04-09T17:05:01;33.65;;;15.88;;
79330;SDS011;68797;49.782;19.054;2023-04-09T17:07:30;28.27;;;14.88;;
79330;SDS011;68797;49.782;19.054;2023-04-09T17:09:57;26.67;;;15.65;;
79330;SDS011;68797;49.782;19.054;2023-04-09T17:12:24;28.25;;;16.02;;
79330;SDS011;68797;49.782;19.054;2023-04-09T17:14:51;31.40;;;15.57;;
79330;SDS011;68797;49.782;19.054;2023-04-09T17:17:18;27.33;;;15.77;;
79330;SDS011;68797;49.782;19.054;2023-04-09T17:35:49;28.63;;;14.27;;
79330;SDS011;68797;49.782;19.054;2023-04-09T17:40:46;34.28;;;15.30;;
79330;SDS011;68797;49.782;19.054;2023-04-09T17:43:12;43.85;;;20.30;;
79330;SDS011;68797;49.782;19.054;2023-04-09T17:45:39;57.13;;;27.20;;
79330;SDS011;68797;49.782;19.054;2023-04-09T17:48:10;37.97;;;18.90;;
79330;SDS011;68797;49.782;19.054;2023-04-09T17:50:37;27.45;;;14.50;;
79330;SDS011;68797;49.782;19.054;2023-04-09T17:53:05;28.00;;;15.30;;
79330;SDS011;68797;49.782;19.054;2023-04-09T17:55:33;37.58;;;19.13;;
79330;SDS011;68797;49.782;19.054;2023-04-09T17:58:02;38.35;;;18.90;;
79330;SDS011;68797;49.782;19.054;2023-04-09T18:00:37;25.60;;;16.00;;
79330;SDS011;68797;49.782;19.054;2023-04-09T18:03:07;33.20;;;16.67;;
79330;SDS011;68797;49.782;19.054;2023-04-09T18:05:37;29.10;;;15.93;;
79330;SDS011;68797;49.782;19.054;2023-04-09T18:08:05;33.60;;;17.65;;
79330;SDS011;68797;49.782;19.054;2023-04-09T18:10:56;34.45;;;18.83;;
79330;SDS011;68797;49.782;19.054;2023-04-09T18:13:33;38.03;;;18.38;;
79330;SDS011;68797;49.782;19.054;2023-04-09T18:16:00;36.95;;;19.25;;
79330;SDS011;68797;49.782;19.054;2023-04-09T18:18:28;36.55;;;17.90;;
79330;SDS011;68797;49.782;19.054;2023-04-09T18:20:54;37.25;;;19.00;;
79330;SDS011;68797;49.782;19.054;2023-04-09T18:23:27;26.85;;;15.10;;
79330;SDS011;68797;49.782;19.054;2023-04-09T18:25:54;47.40;;;22.50;;
79330;SDS011;68797;49.782;19.054;2023-04-09T18:28:21;58.95;;;29.45;;
79330;SDS011;68797;49.782;19.054;2023-04-09T18:30:48;39.97;;;21.60;;
79330;SDS011;68797;49.782;19.054;2023-04-09T18:33:17;77.20;;;33.80;;
79330;SDS011;68797;49.782;19.054;2023-04-09T18:35:44;76.45;;;35.97;;
79330;SDS011;68797;49.782;19.054;2023-04-09T18:38:13;71.53;;;34.72;;
79330;SDS011;68797;49.782;19.054;2023-04-09T18:40:41;67.40;;;32.20;;
79330;SDS011;68797;49.782;19.054;2023-04-09T18:43:09;56.28;;;27.42;;
79330;SDS011;68797;49.782;19.054;2023-04-09T18:45:39;49.58;;;22.55;;
79330;SDS011;68797;49.782;19.054;2023-04-09T18:48:06;48.42;;;23.10;;
79330;SDS011;68797;49.782;19.054;2023-04-09T18:53:01;43.08;;;21.33;;
79330;SDS011;68797;49.782;19.054;2023-04-09T18:55:29;48.13;;;24.23;;
79330;SDS011;68797;49.782;19.054;2023-04-09T18:57:59;46.80;;;24.88;;
79330;SDS011;68797;49.782;19.054;2023-04-09T19:00:26;78.30;;;37.38;;
79330;SDS011;68797;49.782;19.054;2023-04-09T19:02:55;61.00;;;29.70;;
79330;SDS011;68797;49.782;19.054;2023-04-09T19:05:22;72.03;;;37.15;;
79330;SDS011;68797;49.782;19.054;2023-04-09T19:07:49;53.42;;;27.20;;
79330;SDS011;68797;49.782;19.054;2023-04-09T19:10:16;50.33;;;24.40;;
79330;SDS011;68797;49.782;19.054;2023-04-09T19:12:43;46.85;;;19.77;;
79330;SDS011;68797;49.782;19.054;2023-04-09T19:15:16;46.45;;;21.80;;
79330;SDS011;68797;49.782;19.054;2023-04-09T19:17:43;37.42;;;18.02;;
79330;SDS011;68797;49.782;19.054;2023-04-09T19:20:10;36.40;;;17.15;;
79330;SDS011;68797;49.782;19.054;2023-04-09T19:22:37;45.47;;;18.33;;
79330;SDS011;68797;49.782;19.054;2023-04-09T19:25:04;40.67;;;19.08;;
79330;SDS011;68797;49.782;19.054;2023-04-09T19:27:33;42.55;;;19.35;;
79330;SDS011;68797;49.782;19.054;2023-04-09T19:30:00;44.13;;;21.42;;
79330;SDS011;68797;49.782;19.054;2023-04-09T19:32:29;35.20;;;18.50;;
79330;SDS011;68797;49.782;19.054;2023-04-09T19:34:55;43.08;;;19.05;;
79330;SDS011;68797;49.782;19.054;2023-04-09T19:37:23;44.10;;;23.13;;
79330;SDS011;68797;49.782;19.054;2023-04-09T19:39:54;46.40;;;19.80;;
79330;SDS011;68797;49.782;19.054;2023-04-09T19:42:22;39.92;;;17.98;;
79330;SDS011;68797;49.782;19.054;2023-04-09T19:44:50;38.83;;;19.67;;
79330;SDS011;68797;49.782;19.054;2023-04-09T19:47:17;33.28;;;16.73;;
79330;SDS011;68797;49.782;19.054;2023-04-09T19:49:44;34.00;;;16.33;;
79330;SDS011;68797;49.782;19.054;2023-04-09T19:52:12;33.47;;;16.23;;
79330;SDS011;68797;49.782;19.054;2023-04-09T19:54:39;38.45;;;17.58;;
79330;SDS011;68797;49.782;19.054;2023-04-09T19:57:06;33.60;;;17.10;;
79330;SDS011;68797;49.782;19.054;2023-04-09T19:59:33;36.25;;;17.90;;
79330;SDS011;68797;49.782;19.054;2023-04-09T20:02:03;36.25;;;16.10;;
79330;SDS011;68797;49.782;19.054;2023-04-09T20:04:30;35.08;;;16.98;;
79330;SDS011;68797;49.782;19.054;2023-04-09T20:06:58;38.35;;;17.65;;
79330;SDS011;68797;49.782;19.054;2023-04-09T20:09:24;35.88;;;15.65;;
79330;SDS011;68797;49.782;19.054;2023-04-09T20:11:54;36.13;;;18.00;;
79330;SDS011;68797;49.782;19.054;2023-04-09T20:14:21;35.85;;;18.63;;
79330;SDS011;68797;49.782;19.054;2023-04-09T20:16:49;44.63;;;19.13;;
79330;SDS011;68797;49.782;19.054;2023-04-09T20:19:16;35.55;;;18.70;;
79330;SDS011;68797;49.782;19.054;2023-04-09T20:21:45;39.45;;;17.80;;
79330;SDS011;68797;49.782;19.054;2023-04-09T20:26:43;33.30;;;15.75;;
79330;SDS011;68797;49.782;19.054;2023-04-09T20:29:10;47.00;;;21.00;;
79330;SDS011;68797;49.782;19.054;2023-04-09T20:31:37;47.80;;;22.75;;
79330;SDS011;68797;49.782;19.054;2023-04-09T20:34:03;53.80;;;25.17;;
79330;SDS011;68797;49.782;19.054;2023-04-09T20:36:30;47.95;;;22.83;;
79330;SDS011;68797;49.782;19.054;2023-04-09T20:38:57;42.85;;;21.88;;
79330;SDS011;68797;49.782;19.054;2023-04-09T20:41:24;51.95;;;23.42;;
79330;SDS011;68797;49.782;19.054;2023-04-09T20:43:54;67.85;;;32.33;;
79330;SDS011;68797;49.782;19.054;2023-04-09T20:46:20;72.75;;;34.58;;
79330;SDS011;68797;49.782;19.054;2023-04-09T23:19:17;77.13;;;30.88;;
79330;SDS011;68797;49.782;19.054;2023-04-09T23:21:47;73.88;;;29.15;;
79330;SDS011;68797;49.782;19.054;2023-04-09T23:24:15;67.10;;;28.17;;
79330;SDS011;68797;49.782;19.054;2023-04-09T23:26:42;69.97;;;29.15;;
79330;SDS011;68797;49.782;19.054;2023-04-09T23:29:13;65.32;;;27.67;;
79330;SDS011;68797;49.782;19.054;2023-04-09T23:31:42;74.68;;;30.77;;
79330;SDS011;68797;49.782;19.054;2023-04-09T23:34:09;80.65;;;31.70;;
79330;SDS011;68797;49.782;19.054;2023-04-09T23:36:36;70.10;;;29.52;;
79330;SDS011;68797;49.782;19.054;2023-04-09T23:39:09;79.00;;;30.25;;
79330;SDS011;68797;49.782;19.054;2023-04-09T23:41:36;76.00;;;30.23;;
79330;SDS011;68797;49.782;19.054;2023-04-09T23:44:03;71.10;;;29.02;;
79330;SDS011;68797;49.782;19.054;2023-04-09T23:46:35;74.60;;;29.50;;
79330;SDS011;68797;49.782;19.054;2023-04-09T23:49:02;71.63;;;30.42;;
79330;SDS011;68797;49.782;19.054;2023-04-09T23:51:31;73.40;;;29.45;;
79330;SDS011;68797;49.782;19.054;2023-04-09T23:53:58;76.80;;;28.23;;
79330;SDS011;68797;49.782;19.054;2023-04-09T23:56:28;74.80;;;28.95;;
79330;SDS011;68797;49.782;19.054;2023-04-09T23:58:57;74.53;;;27.40;;
